sensor_id;sensor_type;location;lat;lon;timestamp;P1;durP1;ratioP1;P2;durP2;ratioP2
56631;SDS011;42503;39.928;-75.152;2023-07-13T00:01:17;111.20;;;19.05;;
56631;SDS011;42503;39.928;-75.152;2023-07-13T00:11:19;178.57;;;26.20;;
56631;SDS011;42503;39.928;-75.152;2023-07-13T00:21:20;155.85;;;22.83;;
56631;SDS011;42503;39.928;-75.152;2023-07-13T00:31:24;92.45;;;18.33;;
56631;SDS011;42503;39.928;-75.152;2023-07-13T00:41:34;69.18;;;15.98;;
56631;SDS011;42503;39.928;-75.152;2023-07-13T00:51:39;54.70;;;14.82;;
56631;SDS011;42503;39.928;-75.152;2023-07-13T01:01:45;57.55;;;15.05;;
56631;SDS011;42503;39.928;-75.152;2023-07-13T01:11:47;49.85;;;13.38;;
56631;SDS011;42503;39.928;-75.152;2023-07-13T01:21:52;39.50;;;14.43;;
56631;SDS011;42503;39.928;-75.152;2023-07-13T01:31:53;29.90;;;12.60;;
56631;SDS011;42503;39.928;-75.152;2023-07-13T01:41:55;32.70;;;13.75;;
56631;SDS011;42503;39.928;-75.152;2023-07-13T01:51:56;26.00;;;12.38;;
56631;SDS011;42503;39.928;-75.152;2023-07-13T02:01:58;25.08;;;11.45;;
56631;SDS011;42503;39.928;-75.152;2023-07-13T02:11:59;31.65;;;13.05;;
56631;SDS011;42503;39.928;-75.152;2023-07-13T02:22:00;22.23;;;11.15;;
56631;SDS011;42503;39.928;-75.152;2023-07-13T02:32:02;15.55;;;9.80;;
56631;SDS011;42503;39.928;-75.152;2023-07-13T02:42:03;19.92;;;10.70;;
56631;SDS011;42503;39.928;-75.152;2023-07-13T02:52:08;17.30;;;10.38;;
56631;SDS011;42503;39.928;-75.152;2023-07-13T03:02:09;14.70;;;9.90;;
56631;SDS011;42503;39.928;-75.152;2023-07-13T03:12:10;16.60;;;10.55;;
56631;SDS011;42503;39.928;-75.152;2023-07-13T03:22:15;19.83;;;9.88;;
56631;SDS011;42503;39.928;-75.152;2023-07-13T03:32:18;14.27;;;9.40;;
56631;SDS011;42503;39.928;-75.152;2023-07-13T03:42:23;13.82;;;9.05;;
56631;SDS011;42503;39.928;-75.152;2023-07-13T03:52:24;12.60;;;9.57;;
56631;SDS011;42503;39.928;-75.152;2023-07-13T04:02:25;12.52;;;9.07;;
56631;SDS011;42503;39.928;-75.152;2023-07-13T04:12:27;11.93;;;8.68;;
56631;SDS011;42503;39.928;-75.152;2023-07-13T04:22:28;9.40;;;8.45;;
56631;SDS011;42503;39.928;-75.152;2023-07-13T04:32:30;11.23;;;8.32;;
56631;SDS011;42503;39.928;-75.152;2023-07-13T04:42:31;13.25;;;8.48;;
56631;SDS011;42503;39.928;-75.152;2023-07-13T04:52:35;10.65;;;8.75;;
56631;SDS011;42503;39.928;-75.152;2023-07-13T05:02:37;11.35;;;8.32;;
56631;SDS011;42503;39.928;-75.152;2023-07-13T05:12:39;10.30;;;7.80;;
56631;SDS011;42503;39.928;-75.152;2023-07-13T05:22:43;9.05;;;7.80;;
56631;SDS011;42503;39.928;-75.152;2023-07-13T05:32:48;10.27;;;8.05;;
56631;SDS011;42503;39.928;-75.152;2023-07-13T05:42:50;9.98;;;8.32;;
56631;SDS011;42503;39.928;-75.152;2023-07-13T05:52:51;9.15;;;7.43;;
56631;SDS011;42503;39.928;-75.152;2023-07-13T06:02:53;8.48;;;7.55;;
56631;SDS011;42503;39.928;-75.152;2023-07-13T06:12:54;8.40;;;7.60;;
56631;SDS011;42503;39.928;-75.152;2023-07-13T06:22:55;8.20;;;7.07;;
56631;SDS011;42503;39.928;-75.152;2023-07-13T06:32:57;8.05;;;7.10;;
56631;SDS011;42503;39.928;-75.152;2023-07-13T06:43:01;10.15;;;7.07;;
56631;SDS011;42503;39.928;-75.152;2023-07-13T06:53:02;9.00;;;7.03;;
56631;SDS011;42503;39.928;-75.152;2023-07-13T07:03:04;7.53;;;6.68;;
56631;SDS011;42503;39.928;-75.152;2023-07-13T07:13:05;8.57;;;7.15;;
56631;SDS011;42503;39.928;-75.152;2023-07-13T07:23:06;7.90;;;7.10;;
56631;SDS011;42503;39.928;-75.152;2023-07-13T07:33:08;7.60;;;6.88;;
56631;SDS011;42503;39.928;-75.152;2023-07-13T07:43:10;7.55;;;6.85;;
56631;SDS011;42503;39.928;-75.152;2023-07-13T07:53:12;6.50;;;5.88;;
56631;SDS011;42503;39.928;-75.152;2023-07-13T08:03:14;7.32;;;6.63;;
56631;SDS011;42503;39.928;-75.152;2023-07-13T08:13:15;7.80;;;7.00;;
56631;SDS011;42503;39.928;-75.152;2023-07-13T08:23:17;7.18;;;6.47;;
56631;SDS011;42503;39.928;-75.152;2023-07-13T08:33:19;7.28;;;6.53;;
56631;SDS011;42503;39.928;-75.152;2023-07-13T08:43:56;7.63;;;6.05;;
56631;SDS011;42503;39.928;-75.152;2023-07-13T08:53:52;6.60;;;6.00;;
56631;SDS011;42503;39.928;-75.152;2023-07-13T09:14:26;6.40;;;5.80;;
56631;SDS011;42503;39.928;-75.152;2023-07-13T09:24:39;6.60;;;6.00;;
56631;SDS011;42503;39.928;-75.152;2023-07-13T09:34:52;6.35;;;5.75;;
56631;SDS011;42503;39.928;-75.152;2023-07-13T09:44:59;6.13;;;5.53;;
56631;SDS011;42503;39.928;-75.152;2023-07-13T09:55:22;6.20;;;5.68;;
56631;SDS011;42503;39.928;-75.152;2023-07-13T10:05:24;6.10;;;5.50;;
56631;SDS011;42503;39.928;-75.152;2023-07-13T10:15:26;6.18;;;5.63;;
56631;SDS011;42503;39.928;-75.152;2023-07-13T10:25:33;6.20;;;5.60;;
56631;SDS011;42503;39.928;-75.152;2023-07-13T10:35:37;6.35;;;5.75;;
56631;SDS011;42503;39.928;-75.152;2023-07-13T10:45:42;6.10;;;5.55;;
56631;SDS011;42503;39.928;-75.152;2023-07-13T11:06:11;5.20;;;4.63;;
56631;SDS011;42503;39.928;-75.152;2023-07-13T11:36:42;5.72;;;5.20;;
56631;SDS011;42503;39.928;-75.152;2023-07-13T11:46:46;5.93;;;5.35;;
56631;SDS011;42503;39.928;-75.152;2023-07-13T11:56:49;5.85;;;5.35;;
56631;SDS011;42503;39.928;-75.152;2023-07-13T12:06:58;5.22;;;4.72;;
56631;SDS011;42503;39.928;-75.152;2023-07-13T12:27:39;6.70;;;5.22;;
56631;SDS011;42503;39.928;-75.152;2023-07-13T12:37:44;7.85;;;5.10;;
56631;SDS011;42503;39.928;-75.152;2023-07-13T12:47:55;6.15;;;4.97;;
56631;SDS011;42503;39.928;-75.152;2023-07-13T12:58:16;7.32;;;5.07;;
56631;SDS011;42503;39.928;-75.152;2023-07-13T13:08:21;7.70;;;5.40;;
56631;SDS011;42503;39.928;-75.152;2023-07-13T13:18:23;6.45;;;5.35;;
56631;SDS011;42503;39.928;-75.152;2023-07-13T13:28:25;6.65;;;5.00;;
56631;SDS011;42503;39.928;-75.152;2023-07-13T13:38:27;8.38;;;5.20;;
56631;SDS011;42503;39.928;-75.152;2023-07-13T13:48:33;11.30;;;5.22;;
56631;SDS011;42503;39.928;-75.152;2023-07-13T13:58:36;9.02;;;6.07;;
56631;SDS011;42503;39.928;-75.152;2023-07-13T14:08:38;9.07;;;5.47;;
56631;SDS011;42503;39.928;-75.152;2023-07-13T14:18:40;13.70;;;6.32;;
56631;SDS011;42503;39.928;-75.152;2023-07-13T14:28:42;10.65;;;6.13;;
56631;SDS011;42503;39.928;-75.152;2023-07-13T14:38:45;12.45;;;5.93;;
56631;SDS011;42503;39.928;-75.152;2023-07-13T14:48:48;18.30;;;7.32;;
56631;SDS011;42503;39.928;-75.152;2023-07-13T14:58:53;15.57;;;6.60;;
56631;SDS011;42503;39.928;-75.152;2023-07-13T15:08:54;19.33;;;6.93;;
56631;SDS011;42503;39.928;-75.152;2023-07-13T15:18:56;14.07;;;7.85;;
56631;SDS011;42503;39.928;-75.152;2023-07-13T15:29:03;14.53;;;7.27;;
56631;SDS011;42503;39.928;-75.152;2023-07-13T16:16:31;210.75;;;29.58;;
56631;SDS011;42503;39.928;-75.152;2023-07-13T16:26:36;339.50;;;52.20;;
56631;SDS011;42503;39.928;-75.152;2023-07-13T16:46:46;361.90;;;51.28;;
56631;SDS011;42503;39.928;-75.152;2023-07-13T16:56:50;376.33;;;51.35;;
56631;SDS011;42503;39.928;-75.152;2023-07-13T17:06:55;391.15;;;56.05;;
56631;SDS011;42503;39.928;-75.152;2023-07-13T17:16:57;296.35;;;46.08;;
56631;SDS011;42503;39.928;-75.152;2023-07-13T17:26:59;264.10;;;42.13;;
56631;SDS011;42503;39.928;-75.152;2023-07-13T17:37:01;513.22;;;92.45;;
56631;SDS011;42503;39.928;-75.152;2023-07-13T17:47:02;407.30;;;74.00;;
56631;SDS011;42503;39.928;-75.152;2023-07-13T17:57:06;315.15;;;58.80;;
56631;SDS011;42503;39.928;-75.152;2023-07-13T18:07:13;269.45;;;52.30;;
56631;SDS011;42503;39.928;-75.152;2023-07-13T18:17:18;234.25;;;48.78;;
56631;SDS011;42503;39.928;-75.152;2023-07-13T18:27:20;190.38;;;40.78;;
56631;SDS011;42503;39.928;-75.152;2023-07-13T18:37:22;453.52;;;64.00;;
56631;SDS011;42503;39.928;-75.152;2023-07-13T18:47:23;305.25;;;48.75;;
56631;SDS011;42503;39.928;-75.152;2023-07-13T18:57:35;296.65;;;46.13;;
56631;SDS011;42503;39.928;-75.152;2023-07-13T19:07:37;243.38;;;39.53;;
56631;SDS011;42503;39.928;-75.152;2023-07-13T19:17:38;848.95;;;260.23;;
56631;SDS011;42503;39.928;-75.152;2023-07-13T19:27:39;1657.60;;;528.20;;
56631;SDS011;42503;39.928;-75.152;2023-07-13T19:37:41;1210.80;;;418.15;;
56631;SDS011;42503;39.928;-75.152;2023-07-13T19:47:43;978.63;;;363.23;;
56631;SDS011;42503;39.928;-75.152;2023-07-13T19:57:45;887.33;;;327.77;;
56631;SDS011;42503;39.928;-75.152;2023-07-13T20:07:49;755.90;;;289.48;;
56631;SDS011;42503;39.928;-75.152;2023-07-13T20:17:56;671.72;;;259.15;;
56631;SDS011;42503;39.928;-75.152;2023-07-13T20:28:00;587.08;;;231.98;;
56631;SDS011;42503;39.928;-75.152;2023-07-13T20:38:08;552.88;;;208.75;;
56631;SDS011;42503;39.928;-75.152;2023-07-13T20:58:19;465.35;;;167.40;;
56631;SDS011;42503;39.928;-75.152;2023-07-13T21:08:23;433.27;;;153.70;;
56631;SDS011;42503;39.928;-75.152;2023-07-13T21:18:25;408.20;;;142.30;;
56631;SDS011;42503;39.928;-75.152;2023-07-13T21:28:27;392.80;;;136.43;;
56631;SDS011;42503;39.928;-75.152;2023-07-13T21:38:33;343.98;;;121.75;;
56631;SDS011;42503;39.928;-75.152;2023-07-13T21:48:40;308.52;;;114.63;;
56631;SDS011;42503;39.928;-75.152;2023-07-13T21:58:42;279.50;;;100.55;;
56631;SDS011;42503;39.928;-75.152;2023-07-13T22:08:43;277.10;;;99.20;;
56631;SDS011;42503;39.928;-75.152;2023-07-13T22:18:45;238.32;;;90.68;;
56631;SDS011;42503;39.928;-75.152;2023-07-13T22:28:51;214.68;;;83.38;;
56631;SDS011;42503;39.928;-75.152;2023-07-13T22:38:54;202.98;;;78.53;;
56631;SDS011;42503;39.928;-75.152;2023-07-13T22:48:59;181.57;;;70.63;;
56631;SDS011;42503;39.928;-75.152;2023-07-13T22:59:05;163.48;;;67.60;;
56631;SDS011;42503;39.928;-75.152;2023-07-13T23:09:08;152.43;;;60.42;;
56631;SDS011;42503;39.928;-75.152;2023-07-13T23:29:48;137.85;;;54.95;;
56631;SDS011;42503;39.928;-75.152;2023-07-13T23:39:52;131.43;;;52.10;;
56631;SDS011;42503;39.928;-75.152;2023-07-13T23:49:56;113.65;;;50.28;;
56631;SDS011;42503;39.928;-75.152;2023-07-13T23:59:58;108.18;;;47.40;;
